createdAt,value
2023-12-09T00:02:12.138Z,100038.69
2023-12-09T00:07:15.233Z,100036.00
2023-12-09T00:12:18.779Z,100033.69
2023-12-09T00:17:23.150Z,100034.81
2023-12-09T00:22:26.251Z,100025.09
2023-12-09T00:27:29.376Z,100026.91
2023-12-09T00:32:33.731Z,100021.66
2023-12-09T00:37:36.763Z,100027.31
2023-12-09T00:42:39.764Z,100037.91
2023-12-09T00:47:44.303Z,100032.63
2023-12-09T00:52:47.285Z,100038.41
2023-12-09T00:57:50.316Z,100038.41
2023-12-09T01:02:54.852Z,100044.91
2023-12-09T01:07:58.284Z,100042.78
2023-12-09T01:13:01.171Z,100043.03
2023-12-09T01:18:05.709Z,100047.22
2023-12-09T01:23:09.378Z,100044.59
2023-12-09T01:28:12.289Z,100047.16
2023-12-09T01:33:16.791Z,100049.28
2023-12-09T01:38:19.794Z,100043.53
2023-12-09T01:43:23.211Z,100049.34
2023-12-09T01:48:28.073Z,100044.94
2023-12-09T01:53:31.733Z,100049.34
2023-12-09T01:58:36.914Z,100051.88
2023-12-09T02:03:41.447Z,100046.84
2023-12-09T02:08:44.943Z,100041.38
2023-12-09T02:14:05.650Z,100038.47
2023-12-09T02:19:13.920Z,100035.34
2023-12-09T02:24:18.369Z,100042.28
2023-12-09T02:29:23.897Z,100043.28
2023-12-09T02:34:27.781Z,100037.41
2023-12-09T02:39:32.784Z,100040.63
2023-12-09T02:44:37.265Z,100037.44
2023-12-09T02:49:40.279Z,100028.59
2023-12-09T02:54:44.614Z,100027.47
2023-12-09T02:59:47.574Z,100028.94
2023-12-09T03:04:50.471Z,100017.75
2023-12-09T03:09:54.798Z,100015.13
2023-12-09T03:14:57.830Z,100006.94
2023-12-09T03:20:01.010Z,100000.34
2023-12-09T03:25:06.188Z,99999.56
2023-12-09T03:30:10.229Z,99987.13
2023-12-09T03:35:13.497Z,99983.69
2023-12-09T03:40:18.113Z,99979.34
2023-12-09T03:45:21.028Z,99979.97
2023-12-09T03:50:23.947Z,99983.59
2023-12-09T03:55:28.373Z,99977.31
2023-12-09T04:00:31.619Z,99972.78
2023-12-09T04:05:34.614Z,99968.03
2023-12-09T04:10:38.983Z,99965.09
2023-12-09T04:15:41.987Z,99966.44
2023-12-09T04:20:45.034Z,99958.16
2023-12-09T04:25:49.312Z,99964.41
2023-12-09T04:30:52.260Z,99953.00
2023-12-09T04:35:55.243Z,99949.59
2023-12-09T04:40:59.867Z,99949.78
2023-12-09T04:46:02.841Z,99943.81
2023-12-09T04:51:06.034Z,99932.94
2023-12-09T04:56:11.556Z,99935.28
2023-12-09T05:01:14.527Z,99936.94
2023-12-09T05:06:17.537Z,99943.34
2023-12-09T05:11:21.865Z,99927.66
2023-12-09T05:16:24.961Z,99923.81
2023-12-09T05:21:35.335Z,99929.47
2023-12-09T05:26:40.775Z,99925.63
2023-12-09T05:31:43.748Z,99929.81
2023-12-09T05:36:47.322Z,99934.72
2023-12-09T05:41:53.086Z,99924.81
2023-12-09T05:46:56.018Z,99916.94
2023-12-09T05:51:58.943Z,99915.38
2023-12-09T05:57:03.193Z,99905.03
2023-12-09T06:02:06.423Z,99920.38
2023-12-09T06:07:09.345Z,99913.78
2023-12-09T06:12:13.655Z,99921.00
2023-12-09T06:17:16.634Z,99918.03
2023-12-09T06:22:19.644Z,99927.22
2023-12-09T06:27:25.114Z,99916.75
2023-12-09T06:32:28.257Z,99923.38
2023-12-09T06:37:31.457Z,99909.22
2023-12-09T06:42:38.244Z,99911.13
2023-12-09T06:47:41.603Z,99899.81
2023-12-09T06:52:44.559Z,99899.69
2023-12-09T06:57:48.896Z,99887.19
2023-12-09T07:02:58.972Z,99888.88
2023-12-09T07:08:02.894Z,99890.88
2023-12-09T07:13:07.201Z,99879.78
2023-12-09T07:18:10.451Z,99882.84
2023-12-09T07:23:15.315Z,99874.69
2023-12-09T07:28:19.613Z,99871.56
2023-12-09T07:33:22.650Z,99870.88
2023-12-09T07:38:25.678Z,99866.09
2023-12-09T07:43:30.225Z,99857.78
2023-12-09T07:48:33.393Z,99855.16
2023-12-09T07:53:36.565Z,99862.09
2023-12-09T07:58:40.926Z,99865.91
2023-12-09T08:03:43.963Z,99859.69
2023-12-09T08:08:47.734Z,99860.66
2023-12-09T08:13:52.120Z,99861.84
2023-12-09T08:18:55.296Z,99854.03
2023-12-09T08:23:58.348Z,99853.28
2023-12-09T08:29:04.897Z,99848.06
2023-12-09T08:34:07.948Z,99845.22
2023-12-09T08:39:11.130Z,99825.78
2023-12-09T08:44:15.993Z,99814.91
2023-12-09T08:49:19.135Z,99815.88
2023-12-09T08:54:22.129Z,99809.31
2023-12-09T08:59:26.462Z,99824.22
2023-12-09T09:04:29.503Z,99816.13
2023-12-09T09:09:32.501Z,99806.09
2023-12-09T09:14:37.737Z,99801.81
2023-12-09T09:19:41.000Z,99809.31
2023-12-09T09:24:44.486Z,99795.94
2023-12-09T09:29:48.815Z,99796.81
2023-12-09T09:34:52.069Z,99788.88
2023-12-09T09:39:55.176Z,99784.38
2023-12-09T09:45:09.354Z,99777.25
2023-12-09T09:50:13.233Z,99759.69
2023-12-09T09:55:17.322Z,99742.63
2023-12-09T10:00:22.949Z,99729.28
2023-12-09T10:05:26.473Z,99711.63
2023-12-09T10:10:30.644Z,99704.78
2023-12-09T10:15:35.025Z,99693.63
2023-12-09T10:20:38.032Z,99679.09
2023-12-09T10:25:42.316Z,99649.94
2023-12-09T10:30:47.562Z,99635.44
2023-12-09T10:35:50.619Z,99614.47
2023-12-09T10:40:54.880Z,99600.59
2023-12-09T10:45:59.293Z,99583.78
2023-12-09T10:51:02.468Z,99590.69
2023-12-09T10:56:07.958Z,99582.75
2023-12-09T11:01:12.738Z,99564.72
2023-12-09T11:06:17.647Z,99549.78
2023-12-09T11:11:21.097Z,99532.72
2023-12-09T11:16:25.447Z,99517.69
2023-12-09T11:21:30.199Z,99509.47
2023-12-09T11:26:34.982Z,99482.28
2023-12-09T11:31:41.220Z,99466.47
2023-12-09T11:36:45.670Z,99444.56
2023-12-09T11:41:50.214Z,99440.53
2023-12-09T11:46:54.954Z,99420.59
2023-12-09T11:51:59.043Z,99408.84
2023-12-09T11:57:02.133Z,99409.66
2023-12-09T12:02:06.541Z,99391.25
2023-12-09T12:07:09.535Z,99372.03
2023-12-09T12:12:12.740Z,99367.13
2023-12-09T12:17:18.599Z,99347.97
2023-12-09T12:22:21.565Z,99332.25
2023-12-09T12:27:26.862Z,99324.19
2023-12-09T12:32:31.571Z,99315.66
2023-12-09T12:37:34.877Z,99294.34
2023-12-09T12:42:38.246Z,99263.59
2023-12-09T12:47:42.898Z,99258.31
2023-12-09T12:52:46.861Z,99255.00
2023-12-09T12:57:49.916Z,99256.59
2023-12-09T13:02:54.339Z,99250.56
2023-12-09T13:07:57.275Z,99220.75
2023-12-09T13:13:00.951Z,99213.19
2023-12-09T13:18:06.413Z,99185.97
2023-12-09T13:23:09.553Z,99171.13
2023-12-09T13:28:12.697Z,99155.91
2023-12-09T13:33:17.092Z,99145.28
2023-12-09T13:38:20.227Z,99137.94
2023-12-09T13:43:23.473Z,99118.69
2023-12-09T13:48:27.982Z,99113.72
2023-12-09T13:53:31.017Z,99081.66
2023-12-09T13:58:33.995Z,99080.88
2023-12-09T14:03:38.742Z,99060.50
2023-12-09T14:08:42.347Z,99041.22
2023-12-09T14:13:45.333Z,99019.25
2023-12-09T14:18:49.981Z,99023.28
2023-12-09T14:23:54.225Z,98997.34
2023-12-09T14:28:57.528Z,98976.19
2023-12-09T14:34:02.133Z,98972.81
2023-12-09T14:39:07.726Z,98956.28
2023-12-09T14:44:10.745Z,98947.22
2023-12-09T14:49:15.213Z,98932.63
2023-12-09T14:54:20.426Z,98906.59
2023-12-09T14:59:24.251Z,98891.84
2023-12-09T15:04:28.676Z,98878.59
2023-12-09T15:09:31.844Z,98864.88
2023-12-09T15:14:34.959Z,98859.25
2023-12-09T15:19:39.528Z,98852.19
2023-12-09T15:24:43.610Z,98831.69
2023-12-09T15:29:46.708Z,98832.13
2023-12-09T15:34:51.240Z,98800.72
2023-12-09T15:39:54.690Z,98784.63
2023-12-09T15:44:57.753Z,98758.47
2023-12-09T15:50:03.015Z,98755.22
2023-12-09T15:55:07.055Z,98747.16
2023-12-09T16:00:11.391Z,98719.13
2023-12-09T16:05:16.086Z,98702.00
2023-12-09T16:10:19.474Z,98677.53
2023-12-09T16:15:22.682Z,98642.81
2023-12-09T16:20:27.237Z,98628.47
2023-12-09T16:25:30.483Z,98612.22
2023-12-09T16:30:33.690Z,98578.47
2023-12-09T16:35:38.194Z,98576.66
2023-12-09T16:40:41.153Z,98560.53
2023-12-09T16:45:44.176Z,98536.47
2023-12-09T16:50:48.621Z,98524.28
2023-12-09T16:55:51.622Z,98494.13
2023-12-09T17:00:54.892Z,98489.69
2023-12-09T17:05:59.382Z,98471.75
2023-12-09T17:11:03.016Z,98473.81
2023-12-09T17:16:06.519Z,98466.00
2023-12-09T17:21:11.067Z,98459.41
2023-12-09T17:26:14.129Z,98451.63
2023-12-09T17:31:17.189Z,98439.66
2023-12-09T17:36:24.184Z,98440.00
2023-12-09T17:41:27.359Z,98404.28
2023-12-09T17:46:30.375Z,98381.47
2023-12-09T17:51:35.026Z,98384.19
2023-12-09T17:56:38.096Z,98370.53
2023-12-09T18:01:42.662Z,98369.88
2023-12-09T18:06:47.082Z,98358.16
2023-12-09T18:11:50.066Z,98347.03
2023-12-09T18:16:53.234Z,98348.56
2023-12-09T18:21:57.605Z,98337.91
2023-12-09T18:27:00.626Z,98312.84
2023-12-09T18:32:03.662Z,98293.66
2023-12-09T18:37:08.349Z,98276.72
2023-12-09T18:42:11.548Z,98264.41
2023-12-09T18:47:14.688Z,98248.41
2023-12-09T18:52:19.250Z,98231.91
2023-12-09T18:57:22.320Z,98225.91
2023-12-09T19:02:25.373Z,98255.59
2023-12-09T19:07:29.713Z,98237.63
2023-12-09T19:12:32.753Z,98230.81
2023-12-09T19:17:35.951Z,98238.38
2023-12-09T19:22:40.460Z,98247.34
2023-12-09T19:27:43.700Z,98239.91
2023-12-09T19:32:46.690Z,98244.81
2023-12-09T19:37:51.340Z,98228.28
2023-12-09T19:42:56.640Z,98232.34
2023-12-09T19:48:00.784Z,98223.13
2023-12-09T19:53:05.298Z,98201.81
2023-12-09T19:58:08.773Z,98214.16
2023-12-09T20:03:12.434Z,98213.88
2023-12-09T20:08:16.905Z,98229.69
2023-12-09T20:13:20.688Z,98201.13
2023-12-09T20:18:23.724Z,98217.66
2023-12-09T20:23:28.233Z,98198.88
2023-12-09T20:28:31.281Z,98197.47
2023-12-09T20:33:36.275Z,98213.34
2023-12-09T20:38:40.855Z,98207.44
2023-12-09T20:43:45.021Z,98202.09
2023-12-09T20:48:48.116Z,98214.31
2023-12-09T20:53:52.928Z,98213.44
2023-12-09T20:58:56.242Z,98214.16
2023-12-09T21:03:59.436Z,98216.25
2023-12-09T21:09:05.059Z,98223.38
2023-12-09T21:14:08.961Z,98228.53
2023-12-09T21:19:12.654Z,98227.59
2023-12-09T21:24:17.662Z,98244.50
2023-12-09T21:29:21.214Z,98246.34
2023-12-09T21:34:24.305Z,98260.63
2023-12-09T21:39:28.854Z,98270.59
2023-12-09T21:44:31.895Z,98284.94
2023-12-09T21:49:35.025Z,98297.84
2023-12-09T21:54:39.734Z,98290.91
2023-12-09T21:59:42.851Z,98292.47
2023-12-09T22:04:45.876Z,98298.06
2023-12-09T22:09:50.421Z,98302.53
2023-12-09T22:14:53.628Z,98306.94
2023-12-09T22:19:56.703Z,98305.72
2023-12-09T22:25:01.785Z,98339.53
2023-12-09T22:30:05.450Z,98337.41
2023-12-09T22:35:09.224Z,98353.00
2023-12-09T22:40:14.713Z,98372.63
2023-12-09T22:45:17.925Z,98382.97
2023-12-09T22:50:21.030Z,98401.31
2023-12-09T22:55:25.380Z,98409.66
2023-12-09T23:00:33.489Z,98413.44
2023-12-09T23:05:39.147Z,98441.31
2023-12-09T23:10:43.910Z,98440.22
2023-12-09T23:15:46.935Z,98458.31
2023-12-09T23:20:50.048Z,98466.44
2023-12-09T23:25:54.625Z,98479.25
2023-12-09T23:30:57.749Z,98479.16
2023-12-09T23:36:00.799Z,98486.88
2023-12-09T23:41:05.452Z,98505.03
2023-12-09T23:46:08.653Z,98513.84
2023-12-09T23:51:11.974Z,98520.50
2023-12-09T23:56:21.541Z,98530.75
